createdAt,value
2023-03-26T00:01:16.569Z,8.02
2023-03-26T00:03:47.148Z,9.57
2023-03-26T00:06:16.524Z,11.48
2023-03-26T00:08:45.653Z,6.78
2023-03-26T00:11:16.008Z,9.57
2023-03-26T00:13:43.880Z,7.30
2023-03-26T00:16:19.721Z,7.80
2023-03-26T00:18:47.274Z,15.60
2023-03-26T00:21:16.146Z,9.82
2023-03-26T00:23:43.756Z,9.65
2023-03-26T00:26:11.059Z,9.15
2023-03-26T00:28:40.393Z,10.30
2023-03-26T00:31:09.816Z,13.02
2023-03-26T00:33:40.803Z,11.57
2023-03-26T00:36:11.171Z,12.70
2023-03-26T00:38:38.851Z,12.45
2023-03-26T00:41:07.945Z,12.77
2023-03-26T00:43:36.140Z,11.27
2023-03-26T00:46:03.342Z,10.95
2023-03-26T00:48:44.016Z,9.98
2023-03-26T00:51:15.223Z,6.28
2023-03-26T00:53:42.420Z,11.20
2023-03-26T00:56:09.707Z,5.25
2023-03-26T00:58:37.164Z,10.80
2023-03-26T01:01:07.104Z,12.13
2023-03-26T01:03:36.524Z,7.70
2023-03-26T01:06:32.749Z,14.50
2023-03-26T01:09:06.862Z,7.88
2023-03-26T01:11:35.752Z,19.42
2023-03-26T01:14:10.184Z,5.38
2023-03-26T01:16:57.124Z,15.63
2023-03-26T01:19:45.162Z,6.13
2023-03-26T01:22:21.065Z,7.45
2023-03-26T01:24:53.149Z,7.43
2023-03-26T01:27:41.137Z,16.25
2023-03-26T01:30:22.611Z,9.25
2023-03-26T01:32:55.696Z,12.87
2023-03-26T01:35:28.265Z,9.77
2023-03-26T01:38:00.807Z,7.20
2023-03-26T01:41:12.271Z,7.53
2023-03-26T01:44:03.117Z,7.13
2023-03-26T01:46:36.119Z,7.67
2023-03-26T01:49:12.836Z,9.18
2023-03-26T01:51:41.914Z,8.63
2023-03-26T01:54:13.341Z,4.63
2023-03-26T01:56:48.987Z,5.78
2023-03-26T01:59:38.742Z,4.47
2023-03-26T02:02:14.116Z,6.80
2023-03-26T02:04:40.665Z,7.72
2023-03-26T02:07:13.132Z,3.45
2023-03-26T02:09:45.807Z,8.82
2023-03-26T02:12:14.662Z,6.03
2023-03-26T02:14:42.864Z,7.30
2023-03-26T02:17:10.814Z,3.75
2023-03-26T02:19:41.926Z,11.93
2023-03-26T02:22:11.310Z,4.22
2023-03-26T02:24:38.736Z,4.67
2023-03-26T02:27:07.770Z,6.22
2023-03-26T02:29:37.857Z,5.95
2023-03-26T02:32:05.472Z,7.47
2023-03-26T02:34:32.351Z,7.78
2023-03-26T02:36:58.795Z,10.53
2023-03-26T02:39:26.231Z,6.35
2023-03-26T02:41:52.690Z,10.82
2023-03-26T02:44:19.204Z,12.15
2023-03-26T02:46:45.785Z,5.45
2023-03-26T02:49:12.287Z,5.50
2023-03-26T02:51:38.815Z,12.27
2023-03-26T02:54:06.963Z,15.88
2023-03-26T02:56:33.497Z,7.30
2023-03-26T02:58:59.942Z,8.02
2023-03-26T03:01:26.761Z,8.87
2023-03-26T03:03:54.175Z,10.85
2023-03-26T03:06:20.847Z,6.22
2023-03-26T03:08:47.640Z,10.82
2023-03-26T03:11:17.002Z,7.90
2023-03-26T03:13:44.716Z,16.07
2023-03-26T03:16:11.229Z,14.30
2023-03-26T03:18:37.773Z,12.73
2023-03-26T03:21:06.062Z,19.50
2023-03-26T03:23:32.875Z,8.48
2023-03-26T03:25:59.302Z,8.33
2023-03-26T03:28:26.609Z,12.93
2023-03-26T03:30:53.221Z,11.73
2023-03-26T03:33:21.431Z,6.43
2023-03-26T03:35:49.550Z,9.15
2023-03-26T03:38:19.307Z,11.57
2023-03-26T03:40:46.091Z,17.83
2023-03-26T03:43:12.523Z,17.50
2023-03-26T03:45:38.938Z,14.88
2023-03-26T03:48:05.882Z,23.08
2023-03-26T03:50:35.052Z,18.33
2023-03-26T03:53:02.905Z,19.90
2023-03-26T03:55:29.966Z,18.92
2023-03-26T03:57:58.286Z,20.65
2023-03-26T04:00:24.784Z,30.45
2023-03-26T04:02:54.383Z,29.53
2023-03-26T04:05:21.228Z,31.38
2023-03-26T04:07:47.654Z,26.00
2023-03-26T04:10:15.954Z,33.33
2023-03-26T04:12:42.365Z,38.83
2023-03-26T04:15:09.079Z,25.17
2023-03-26T04:17:42.335Z,31.27
2023-03-26T04:20:15.520Z,39.58
2023-03-26T04:22:43.429Z,26.25
2023-03-26T04:25:12.327Z,26.50
2023-03-26T04:27:41.606Z,22.93
2023-03-26T04:30:11.274Z,23.48
2023-03-26T04:32:40.323Z,21.15
2023-03-26T04:35:07.171Z,29.70
2023-03-26T04:37:39.869Z,32.00
2023-03-26T04:40:15.432Z,31.40
2023-03-26T04:42:45.897Z,33.92
2023-03-26T04:45:14.899Z,29.15
2023-03-26T04:47:41.822Z,29.30
2023-03-26T04:50:10.247Z,25.23
2023-03-26T04:52:37.518Z,37.40
2023-03-26T04:55:07.573Z,19.58
2023-03-26T04:57:46.242Z,27.20
2023-03-26T05:00:16.326Z,28.48
2023-03-26T05:02:43.337Z,31.33
2023-03-26T05:05:10.717Z,24.07
2023-03-26T05:07:37.419Z,25.08
2023-03-26T05:10:05.033Z,25.08
2023-03-26T05:12:31.548Z,27.65
2023-03-26T05:14:57.967Z,26.35
2023-03-26T05:17:25.252Z,27.10
2023-03-26T05:19:54.478Z,24.90
2023-03-26T05:22:20.945Z,21.60
2023-03-26T05:24:47.378Z,26.38
2023-03-26T05:27:16.908Z,31.60
2023-03-26T05:29:43.919Z,20.03
2023-03-26T05:32:10.895Z,27.60
2023-03-26T05:34:39.152Z,28.92
2023-03-26T05:37:06.793Z,29.63
2023-03-26T05:39:33.750Z,24.42
2023-03-26T05:42:00.189Z,14.20
2023-03-26T05:44:26.865Z,20.30
2023-03-26T05:46:53.491Z,26.20
2023-03-26T05:49:20.183Z,16.33
2023-03-26T05:51:46.606Z,21.73
2023-03-26T05:54:13.020Z,25.00
2023-03-26T05:56:39.526Z,27.08
2023-03-26T05:59:06.758Z,38.92
2023-03-26T06:01:33.251Z,33.90
2023-03-26T06:03:59.772Z,33.97
2023-03-26T06:06:26.468Z,39.87
2023-03-26T06:09:02.195Z,26.35
2023-03-26T06:11:30.960Z,25.95
2023-03-26T06:13:57.618Z,32.60
2023-03-26T06:16:27.822Z,25.80
2023-03-26T06:18:56.888Z,33.03
2023-03-26T06:21:24.828Z,30.58
2023-03-26T06:23:51.751Z,27.60
2023-03-26T06:26:18.449Z,22.00
2023-03-26T06:28:44.902Z,34.30
2023-03-26T06:31:11.873Z,31.87
2023-03-26T06:33:38.506Z,28.13
2023-03-26T06:36:05.939Z,27.08
2023-03-26T06:38:32.387Z,33.42
2023-03-26T06:41:03.553Z,26.58
2023-03-26T06:43:33.543Z,29.13
2023-03-26T06:46:01.273Z,36.15
2023-03-26T06:48:28.247Z,32.97
2023-03-26T06:50:55.083Z,29.77
2023-03-26T06:53:21.684Z,38.97
2023-03-26T06:55:48.144Z,29.10
2023-03-26T06:58:14.707Z,27.40
2023-03-26T07:00:42.272Z,29.80
2023-03-26T07:03:08.859Z,27.85
2023-03-26T07:05:35.363Z,27.65
2023-03-26T07:08:03.015Z,29.10
2023-03-26T07:10:29.479Z,38.58
2023-03-26T07:12:56.056Z,33.53
2023-03-26T07:15:22.588Z,29.13
2023-03-26T07:17:49.117Z,26.93
2023-03-26T07:20:15.779Z,23.70
2023-03-26T07:22:42.667Z,22.75
2023-03-26T07:25:10.045Z,33.77
2023-03-26T07:27:59.993Z,31.00
2023-03-26T07:30:50.645Z,38.60
2023-03-26T07:33:37.676Z,24.73
2023-03-26T07:36:46.716Z,37.80
2023-03-26T07:39:42.785Z,41.47
2023-03-26T07:42:45.401Z,26.70
2023-03-26T07:45:41.498Z,28.63
2023-03-26T07:48:18.664Z,29.00
2023-03-26T07:50:46.144Z,38.00
2023-03-26T07:53:12.802Z,33.00
2023-03-26T07:55:50.331Z,26.20
2023-03-26T07:58:38.214Z,31.15
2023-03-26T08:01:12.340Z,27.30
2023-03-26T08:04:24.062Z,28.40
2023-03-26T08:07:05.694Z,25.20
2023-03-26T08:09:42.166Z,31.08
2023-03-26T08:12:24.495Z,25.55
2023-03-26T08:14:53.819Z,30.77
2023-03-26T08:17:49.077Z,30.05
2023-03-26T08:20:41.475Z,26.03
2023-03-26T08:23:11.969Z,28.70
2023-03-26T08:26:09.350Z,32.13
2023-03-26T08:28:52.941Z,32.78
2023-03-26T08:31:27.517Z,27.48
2023-03-26T08:33:53.921Z,32.23
2023-03-26T08:36:20.474Z,42.05
2023-03-26T08:38:46.992Z,33.78
2023-03-26T08:41:15.032Z,29.70
2023-03-26T08:43:59.965Z,26.80
2023-03-26T08:46:52.200Z,40.73
2023-03-26T08:49:34.058Z,32.40
2023-03-26T08:52:19.227Z,31.02
2023-03-26T08:55:07.766Z,26.05
2023-03-26T08:57:54.357Z,32.50
2023-03-26T09:00:45.940Z,36.40
2023-03-26T09:03:37.219Z,24.02
2023-03-26T09:06:11.415Z,33.72
2023-03-26T09:09:07.608Z,31.40
2023-03-26T09:12:12.872Z,31.73
2023-03-26T09:15:24.834Z,30.10
2023-03-26T09:18:16.094Z,21.23
2023-03-26T09:20:54.827Z,30.75
2023-03-26T09:23:33.592Z,34.45
2023-03-26T09:26:04.470Z,26.90
2023-03-26T09:28:47.033Z,29.70
2023-03-26T09:31:51.464Z,27.20
2023-03-26T09:34:28.741Z,22.02
2023-03-26T09:37:20.393Z,31.30
2023-03-26T09:40:25.282Z,27.33
2023-03-26T09:43:11.234Z,31.73
2023-03-26T09:46:14.705Z,24.05
2023-03-26T09:49:02.088Z,27.52
2023-03-26T09:51:50.243Z,20.42
2023-03-26T09:54:21.709Z,19.25
2023-03-26T09:56:57.826Z,24.77
2023-03-26T09:59:53.354Z,18.17
2023-03-26T10:02:47.710Z,13.30
2023-03-26T10:05:27.853Z,17.67
2023-03-26T10:08:21.783Z,20.08
2023-03-26T10:11:02.158Z,13.17
2023-03-26T10:13:39.163Z,12.05
2023-03-26T10:16:21.351Z,11.95
2023-03-26T10:19:04.331Z,11.02
2023-03-26T10:21:47.360Z,16.02
2023-03-26T10:24:33.022Z,18.40
2023-03-26T10:27:15.220Z,16.90
2023-03-26T10:30:04.032Z,7.45
2023-03-26T10:32:46.806Z,15.55
2023-03-26T10:35:13.190Z,8.55
2023-03-26T10:38:02.232Z,16.63
2023-03-26T10:40:35.704Z,9.65
2023-03-26T10:43:24.123Z,12.57
2023-03-26T10:46:15.669Z,6.85
2023-03-26T10:49:01.000Z,9.68
2023-03-26T10:51:45.314Z,12.60
2023-03-26T10:54:25.821Z,12.52
2023-03-26T10:56:54.327Z,8.63
2023-03-26T10:59:20.934Z,11.52
2023-03-26T11:01:59.543Z,9.43
2023-03-26T11:04:57.123Z,11.83
2023-03-26T11:07:33.769Z,14.77
2023-03-26T11:10:24.222Z,8.85
2023-03-26T11:13:21.857Z,15.20
2023-03-26T11:15:53.402Z,11.48
2023-03-26T11:18:34.922Z,8.03
2023-03-26T11:21:19.165Z,11.68
2023-03-26T11:23:46.769Z,16.15
2023-03-26T11:26:18.494Z,8.15
2023-03-26T11:29:31.135Z,9.90
2023-03-26T11:32:11.625Z,11.87
2023-03-26T11:34:46.952Z,10.32
2023-03-26T11:37:27.136Z,15.98
2023-03-26T11:39:58.648Z,9.80
2023-03-26T11:42:25.721Z,14.55
2023-03-26T11:44:57.256Z,11.30
2023-03-26T11:47:31.874Z,9.52
2023-03-26T11:50:00.655Z,15.30
2023-03-26T11:52:27.516Z,9.15
2023-03-26T11:54:54.146Z,14.07
2023-03-26T11:57:25.797Z,10.53
2023-03-26T12:00:04.326Z,10.75
2023-03-26T12:02:38.113Z,13.00
2023-03-26T12:05:13.362Z,11.80
2023-03-26T12:07:47.434Z,8.60
2023-03-26T12:10:25.580Z,5.63
2023-03-26T12:12:54.930Z,8.18
2023-03-26T12:15:21.874Z,8.13
2023-03-26T12:17:53.367Z,15.93
2023-03-26T12:20:26.174Z,7.15
2023-03-26T12:23:00.906Z,4.67
2023-03-26T12:25:36.272Z,5.80
2023-03-26T12:28:05.620Z,9.00
2023-03-26T12:30:39.557Z,13.30
2023-03-26T12:33:15.031Z,13.82
2023-03-26T12:35:42.210Z,8.50
2023-03-26T12:38:37.580Z,11.00
2023-03-26T12:41:08.557Z,10.73
2023-03-26T12:44:46.780Z,12.25
2023-03-26T12:47:56.642Z,7.65
2023-03-26T12:49:33.531Z,20.27
2023-03-26T12:52:44.127Z,6.15
2023-03-26T12:55:31.363Z,11.13
2023-03-26T12:58:25.779Z,7.07
2023-03-26T13:01:05.996Z,4.97
2023-03-26T13:03:53.190Z,6.47
2023-03-26T13:06:59.057Z,8.95
2023-03-26T13:09:27.697Z,8.40
2023-03-26T13:12:23.158Z,8.57
2023-03-26T13:15:08.963Z,5.93
2023-03-26T13:17:48.440Z,7.47
2023-03-26T13:20:41.932Z,7.63
2023-03-26T13:23:14.500Z,6.72
2023-03-26T13:26:12.843Z,10.00
2023-03-26T13:29:15.855Z,10.27
2023-03-26T13:31:53.449Z,13.03
2023-03-26T13:34:55.166Z,8.10
2023-03-26T13:37:55.809Z,10.52
2023-03-26T13:40:42.433Z,4.32
2023-03-26T13:43:32.417Z,6.50
2023-03-26T13:46:41.141Z,6.47
2023-03-26T13:49:29.172Z,13.15
2023-03-26T13:52:04.409Z,11.27
2023-03-26T13:54:45.849Z,7.43
2023-03-26T13:57:21.554Z,8.88
2023-03-26T13:59:57.840Z,5.93
2023-03-26T14:02:40.639Z,5.22
2023-03-26T14:05:19.529Z,5.00
2023-03-26T14:07:55.103Z,5.22
2023-03-26T14:10:27.277Z,3.13
2023-03-26T14:13:15.366Z,9.60
2023-03-26T14:15:57.162Z,5.65
2023-03-26T14:18:42.392Z,4.45
2023-03-26T14:21:36.603Z,6.15
2023-03-26T14:24:21.431Z,6.68
2023-03-26T14:26:58.414Z,5.70
2023-03-26T14:29:29.983Z,5.18
2023-03-26T14:32:09.163Z,8.15
2023-03-26T14:35:06.663Z,2.35
2023-03-26T14:37:50.930Z,6.60
2023-03-26T14:40:33.048Z,3.60
2023-03-26T14:43:20.943Z,4.13
2023-03-26T14:46:07.516Z,4.80
2023-03-26T14:48:48.096Z,5.68
2023-03-26T14:51:52.192Z,8.52
2023-03-26T14:54:27.861Z,4.00
2023-03-26T14:57:32.970Z,6.80
2023-03-26T15:00:27.639Z,5.70
2023-03-26T15:03:09.627Z,8.00
2023-03-26T15:06:16.252Z,3.75
2023-03-26T15:09:04.254Z,11.70
2023-03-26T15:11:45.865Z,5.63
2023-03-26T15:14:51.050Z,8.00
2023-03-26T15:17:49.851Z,7.80
2023-03-26T15:21:13.655Z,4.45
2023-03-26T15:24:12.159Z,6.40
2023-03-26T15:27:09.689Z,5.07
2023-03-26T15:30:11.601Z,7.88
2023-03-26T15:33:17.973Z,6.43
2023-03-26T15:36:21.951Z,2.50
2023-03-26T15:39:06.836Z,7.60
2023-03-26T15:42:06.440Z,4.22
2023-03-26T15:44:50.764Z,4.28
2023-03-26T15:47:46.344Z,6.93
2023-03-26T15:50:16.065Z,8.90
2023-03-26T15:53:09.602Z,4.93
2023-03-26T15:56:05.762Z,6.55
2023-03-26T15:58:44.131Z,9.18
2023-03-26T16:01:48.490Z,5.25
2023-03-26T16:04:35.990Z,4.47
2023-03-26T16:07:23.908Z,5.83
2023-03-26T16:10:02.221Z,4.65
2023-03-26T16:12:46.283Z,4.28
2023-03-26T16:15:26.888Z,7.63
2023-03-26T16:18:09.357Z,4.75
2023-03-26T16:20:50.843Z,9.03
2023-03-26T16:23:34.483Z,5.78
2023-03-26T16:26:43.556Z,2.35
2023-03-26T16:29:26.034Z,5.97
2023-03-26T16:32:25.998Z,9.00
2023-03-26T16:35:15.628Z,3.63
2023-03-26T16:37:49.931Z,8.95
2023-03-26T16:40:16.517Z,11.40
2023-03-26T16:43:06.277Z,6.40
2023-03-26T16:45:43.633Z,2.65
2023-03-26T16:48:27.714Z,1.67
2023-03-26T16:51:10.105Z,5.85
2023-03-26T16:54:17.435Z,4.88
2023-03-26T16:56:55.084Z,4.07
2023-03-26T17:00:05.755Z,7.53
2023-03-26T17:02:41.745Z,2.03
2023-03-26T17:05:19.788Z,3.70
2023-03-26T17:08:01.275Z,4.43
2023-03-26T17:11:00.449Z,3.08
2023-03-26T17:13:50.794Z,2.08
2023-03-26T17:16:47.666Z,4.50
2023-03-26T17:19:14.080Z,4.63
2023-03-26T17:21:52.240Z,4.15
2023-03-26T17:24:33.410Z,3.13
2023-03-26T17:27:25.258Z,3.85
2023-03-26T17:30:21.032Z,2.77
2023-03-26T17:33:13.589Z,7.18
2023-03-26T17:35:44.651Z,5.28
2023-03-26T17:38:17.266Z,5.88
2023-03-26T17:40:56.752Z,7.40
2023-03-26T17:43:46.528Z,3.50
2023-03-26T17:46:36.480Z,2.40
2023-03-26T17:49:12.050Z,4.80
2023-03-26T17:52:06.857Z,9.88
2023-03-26T17:54:41.285Z,3.45
2023-03-26T17:57:39.955Z,5.30
2023-03-26T18:00:09.193Z,12.93
2023-03-26T18:02:43.303Z,6.60
2023-03-26T18:05:13.677Z,5.15
2023-03-26T18:08:06.107Z,8.98
2023-03-26T18:11:01.385Z,5.57
2023-03-26T18:13:52.072Z,7.70
2023-03-26T18:16:49.596Z,2.97
2023-03-26T18:19:22.648Z,5.63
2023-03-26T18:21:56.769Z,3.13
2023-03-26T18:24:37.607Z,4.73
2023-03-26T18:27:22.194Z,5.72
2023-03-26T18:30:01.708Z,6.43
2023-03-26T18:32:33.175Z,2.85
2023-03-26T18:35:13.351Z,4.75
2023-03-26T18:37:40.338Z,4.93
2023-03-26T18:40:24.299Z,4.70
2023-03-26T18:43:01.068Z,8.05
2023-03-26T18:45:33.542Z,6.07
2023-03-26T18:48:04.546Z,10.57
2023-03-26T18:50:36.929Z,2.20
2023-03-26T18:53:06.153Z,5.68
2023-03-26T18:55:39.173Z,9.75
2023-03-26T18:58:23.494Z,3.17
2023-03-26T19:00:52.845Z,5.93
2023-03-26T19:03:24.453Z,10.97
2023-03-26T19:05:53.672Z,5.43
2023-03-26T19:08:23.704Z,8.98
2023-03-26T19:10:51.913Z,12.43
2023-03-26T19:13:21.363Z,4.57
2023-03-26T19:15:51.263Z,5.17
2023-03-26T19:18:22.192Z,6.47
2023-03-26T19:20:52.993Z,7.88
2023-03-26T19:23:28.525Z,11.68
2023-03-26T19:25:57.053Z,7.40
2023-03-26T19:28:27.922Z,4.80
2023-03-26T19:31:06.216Z,5.72
2023-03-26T19:33:34.836Z,5.00
2023-03-26T19:36:17.705Z,6.72
2023-03-26T19:38:53.219Z,10.65
2023-03-26T19:41:25.663Z,4.10
2023-03-26T19:43:59.075Z,1.35
2023-03-26T19:46:27.655Z,6.47
2023-03-26T19:48:56.440Z,4.85
2023-03-26T19:51:36.888Z,5.53
2023-03-26T19:54:13.852Z,3.03
2023-03-26T19:56:40.552Z,4.72
2023-03-26T19:59:07.283Z,4.47
2023-03-26T20:01:33.848Z,3.17
2023-03-26T20:04:06.516Z,3.85
2023-03-26T20:06:43.400Z,3.67
2023-03-26T20:09:12.869Z,4.65
2023-03-26T20:11:40.643Z,2.20
2023-03-26T20:14:15.715Z,3.53
2023-03-26T20:16:45.032Z,5.50
2023-03-26T20:19:13.902Z,2.23
2023-03-26T20:21:41.470Z,3.22
2023-03-26T20:24:13.053Z,5.75
2023-03-26T20:26:39.469Z,3.28
2023-03-26T20:29:06.159Z,1.67
2023-03-26T20:31:32.723Z,3.43
2023-03-26T20:33:59.388Z,6.43
2023-03-26T20:36:34.077Z,5.30
2023-03-26T20:39:08.422Z,8.25
2023-03-26T20:41:38.055Z,8.80
2023-03-26T20:44:13.430Z,3.37
2023-03-26T20:46:39.851Z,6.13
2023-03-26T20:49:06.651Z,5.72
2023-03-26T20:51:33.072Z,2.80
2023-03-26T20:54:00.516Z,2.85
2023-03-26T20:56:27.091Z,9.07
2023-03-26T20:59:09.964Z,3.85
2023-03-26T21:01:38.447Z,6.18
2023-03-26T21:04:05.400Z,4.95
2023-03-26T21:06:31.991Z,4.63
2023-03-26T21:08:58.829Z,2.00
2023-03-26T21:11:47.580Z,4.78
2023-03-26T21:14:25.415Z,8.60
2023-03-26T21:16:52.525Z,6.07
2023-03-26T21:19:20.053Z,4.07
2023-03-26T21:21:50.598Z,2.70
2023-03-26T21:24:44.961Z,5.30
2023-03-26T21:27:26.442Z,9.35
2023-03-26T21:29:54.389Z,2.13
2023-03-26T21:32:22.450Z,3.97
2023-03-26T21:34:58.758Z,2.40
2023-03-26T21:37:26.855Z,5.18
2023-03-26T21:39:53.617Z,4.22
2023-03-26T21:42:20.373Z,8.30
2023-03-26T21:44:47.602Z,6.43
2023-03-26T21:47:14.839Z,4.23
2023-03-26T21:49:41.602Z,4.40
2023-03-26T21:52:13.555Z,5.55
2023-03-26T21:54:43.268Z,10.70
2023-03-26T21:57:17.662Z,4.93
2023-03-26T21:59:56.524Z,7.10
2023-03-26T22:02:32.164Z,4.55
2023-03-26T22:05:12.517Z,7.45
2023-03-26T22:07:50.877Z,6.68
2023-03-26T22:10:17.757Z,3.70
2023-03-26T22:12:44.396Z,5.70
2023-03-26T22:15:13.831Z,4.53
2023-03-26T22:17:43.706Z,6.10
2023-03-26T22:20:12.492Z,4.72
2023-03-26T22:22:48.640Z,6.88
2023-03-26T22:25:17.714Z,4.07
2023-03-26T22:27:46.130Z,2.42
2023-03-26T22:30:13.932Z,6.82
2023-03-26T22:32:40.781Z,8.05
2023-03-26T22:35:07.649Z,1.83
2023-03-26T22:37:35.558Z,3.90
2023-03-26T22:40:02.051Z,5.22
2023-03-26T22:42:28.457Z,6.72
2023-03-26T22:44:54.937Z,1.50
2023-03-26T22:47:21.787Z,3.20
2023-03-26T22:49:48.227Z,3.87
2023-03-26T22:52:14.644Z,4.15
2023-03-26T22:54:41.283Z,6.60
2023-03-26T22:57:08.028Z,4.25
2023-03-26T22:59:34.490Z,6.13
2023-03-26T23:02:01.229Z,2.77
2023-03-26T23:04:31.721Z,4.10
2023-03-26T23:06:58.800Z,4.80
2023-03-26T23:09:25.377Z,1.35
2023-03-26T23:11:51.814Z,1.80
2023-03-26T23:14:19.012Z,4.90
2023-03-26T23:16:48.456Z,5.50
2023-03-26T23:19:14.985Z,4.97
2023-03-26T23:21:41.442Z,3.75
2023-03-26T23:24:08.147Z,5.00
2023-03-26T23:26:43.948Z,1.93
2023-03-26T23:29:16.438Z,6.88
2023-03-26T23:31:42.989Z,3.17
2023-03-26T23:34:10.041Z,6.15
2023-03-26T23:36:36.445Z,5.28
2023-03-26T23:39:04.664Z,3.13
2023-03-26T23:41:31.284Z,5.05
2023-03-26T23:43:57.684Z,2.80
2023-03-26T23:46:30.082Z,8.65
2023-03-26T23:48:59.833Z,4.90
2023-03-26T23:51:26.995Z,4.90
2023-03-26T23:53:53.704Z,4.32
2023-03-26T23:56:20.236Z,3.15
2023-03-26T23:58:47.664Z,4.10
